sensor_id;sensor_type;location;lat;lon;timestamp;temperature;humidity
42979;DHT22;28616;44.746;19.678;2023-01-15T00:00:47;2.30;99.90
42979;DHT22;28616;44.746;19.678;2023-01-15T00:03:18;2.30;99.90
42979;DHT22;28616;44.746;19.678;2023-01-15T00:05:43;2.40;99.90
42979;DHT22;28616;44.746;19.678;2023-01-15T00:08:09;2.30;99.90
42979;DHT22;28616;44.746;19.678;2023-01-15T00:10:35;2.30;99.90
42979;DHT22;28616;44.746;19.678;2023-01-15T00:13:01;2.30;99.90
42979;DHT22;28616;44.746;19.678;2023-01-15T00:15:27;2.30;99.90
42979;DHT22;28616;44.746;19.678;2023-01-15T00:17:52;2.30;99.90
42979;DHT22;28616;44.746;19.678;2023-01-15T00:20:21;2.30;99.90
42979;DHT22;28616;44.746;19.678;2023-01-15T00:22:47;2.30;99.90
42979;DHT22;28616;44.746;19.678;2023-01-15T00:25:15;2.20;99.90
42979;DHT22;28616;44.746;19.678;2023-01-15T00:28:04;2.20;99.90
42979;DHT22;28616;44.746;19.678;2023-01-15T00:30:33;2.20;99.90
42979;DHT22;28616;44.746;19.678;2023-01-15T00:32:58;2.20;99.90
42979;DHT22;28616;44.746;19.678;2023-01-15T00:35:24;2.20;99.90
42979;DHT22;28616;44.746;19.678;2023-01-15T00:37:50;2.20;99.90
42979;DHT22;28616;44.746;19.678;2023-01-15T00:40:18;2.20;99.90
42979;DHT22;28616;44.746;19.678;2023-01-15T00:42:44;2.30;99.90
42979;DHT22;28616;44.746;19.678;2023-01-15T00:45:10;2.20;99.90
42979;DHT22;28616;44.746;19.678;2023-01-15T00:47:41;2.30;99.90
42979;DHT22;28616;44.746;19.678;2023-01-15T00:50:13;2.30;99.90
42979;DHT22;28616;44.746;19.678;2023-01-15T00:52:39;2.30;99.90
42979;DHT22;28616;44.746;19.678;2023-01-15T00:55:06;2.30;99.90
42979;DHT22;28616;44.746;19.678;2023-01-15T00:57:32;2.30;99.90
42979;DHT22;28616;44.746;19.678;2023-01-15T00:59:58;2.30;99.90
42979;DHT22;28616;44.746;19.678;2023-01-15T01:02:24;2.30;99.90
42979;DHT22;28616;44.746;19.678;2023-01-15T01:04:50;2.30;99.90
42979;DHT22;28616;44.746;19.678;2023-01-15T01:07:16;2.30;99.90
42979;DHT22;28616;44.746;19.678;2023-01-15T01:09:43;2.30;99.90
42979;DHT22;28616;44.746;19.678;2023-01-15T01:12:09;2.30;99.90
42979;DHT22;28616;44.746;19.678;2023-01-15T01:14:36;2.30;99.90
42979;DHT22;28616;44.746;19.678;2023-01-15T01:17:02;2.30;99.90
42979;DHT22;28616;44.746;19.678;2023-01-15T01:19:28;2.30;99.90
42979;DHT22;28616;44.746;19.678;2023-01-15T01:21:54;2.30;99.90
42979;DHT22;28616;44.746;19.678;2023-01-15T01:24:22;2.20;99.90
42979;DHT22;28616;44.746;19.678;2023-01-15T01:26:48;2.30;99.90
42979;DHT22;28616;44.746;19.678;2023-01-15T01:29:18;2.20;99.90
42979;DHT22;28616;44.746;19.678;2023-01-15T01:31:45;2.20;99.90
42979;DHT22;28616;44.746;19.678;2023-01-15T01:34:12;2.20;99.90
42979;DHT22;28616;44.746;19.678;2023-01-15T01:36:40;2.10;99.90
42979;DHT22;28616;44.746;19.678;2023-01-15T01:39:07;2.10;99.90
42979;DHT22;28616;44.746;19.678;2023-01-15T01:41:36;2.10;99.90
42979;DHT22;28616;44.746;19.678;2023-01-15T01:44:04;2.00;99.90
42979;DHT22;28616;44.746;19.678;2023-01-15T01:46:32;2.00;99.90
42979;DHT22;28616;44.746;19.678;2023-01-15T01:49:03;2.00;99.90
42979;DHT22;28616;44.746;19.678;2023-01-15T01:51:46;1.90;99.90
42979;DHT22;28616;44.746;19.678;2023-01-15T01:54:17;1.90;99.90
42979;DHT22;28616;44.746;19.678;2023-01-15T01:56:44;1.90;99.90
42979;DHT22;28616;44.746;19.678;2023-01-15T01:59:14;1.90;99.90
42979;DHT22;28616;44.746;19.678;2023-01-15T02:01:40;1.90;99.90
42979;DHT22;28616;44.746;19.678;2023-01-15T02:04:07;1.80;99.90
42979;DHT22;28616;44.746;19.678;2023-01-15T02:06:33;1.80;99.90
42979;DHT22;28616;44.746;19.678;2023-01-15T02:09:00;1.80;99.90
42979;DHT22;28616;44.746;19.678;2023-01-15T02:11:26;1.80;99.90
42979;DHT22;28616;44.746;19.678;2023-01-15T02:16:41;1.70;99.90
42979;DHT22;28616;44.746;19.678;2023-01-15T02:22:26;1.70;99.90
42979;DHT22;28616;44.746;19.678;2023-01-15T02:25:16;1.70;99.90
42979;DHT22;28616;44.746;19.678;2023-01-15T02:27:54;1.70;99.90
42979;DHT22;28616;44.746;19.678;2023-01-15T02:30:24;1.70;99.90
42979;DHT22;28616;44.746;19.678;2023-01-15T02:32:57;1.70;99.90
42979;DHT22;28616;44.746;19.678;2023-01-15T02:38:28;1.60;99.90
42979;DHT22;28616;44.746;19.678;2023-01-15T02:40:58;1.60;99.90
42979;DHT22;28616;44.746;19.678;2023-01-15T02:43:26;1.60;99.90
42979;DHT22;28616;44.746;19.678;2023-01-15T02:45:55;1.60;99.90
42979;DHT22;28616;44.746;19.678;2023-01-15T02:48:26;1.50;99.90
42979;DHT22;28616;44.746;19.678;2023-01-15T02:51:01;1.50;99.90
42979;DHT22;28616;44.746;19.678;2023-01-15T02:53:30;1.50;99.90
42979;DHT22;28616;44.746;19.678;2023-01-15T02:56:00;1.50;99.90
42979;DHT22;28616;44.746;19.678;2023-01-15T02:58:33;1.50;99.90
42979;DHT22;28616;44.746;19.678;2023-01-15T03:01:03;1.50;99.90
42979;DHT22;28616;44.746;19.678;2023-01-15T03:03:48;1.50;99.90
42979;DHT22;28616;44.746;19.678;2023-01-15T03:08:44;1.50;99.90
42979;DHT22;28616;44.746;19.678;2023-01-15T03:11:14;1.50;99.90
42979;DHT22;28616;44.746;19.678;2023-01-15T03:13:54;1.40;99.90
42979;DHT22;28616;44.746;19.678;2023-01-15T03:16:35;1.40;99.90
42979;DHT22;28616;44.746;19.678;2023-01-15T03:21:49;1.30;99.90
42979;DHT22;28616;44.746;19.678;2023-01-15T03:24:39;1.30;99.90
42979;DHT22;28616;44.746;19.678;2023-01-15T03:27:06;1.20;99.90
42979;DHT22;28616;44.746;19.678;2023-01-15T03:29:40;1.20;99.90
42979;DHT22;28616;44.746;19.678;2023-01-15T03:32:07;1.10;99.90
42979;DHT22;28616;44.746;19.678;2023-01-15T03:34:39;1.00;99.90
42979;DHT22;28616;44.746;19.678;2023-01-15T03:37:06;0.90;99.90
42979;DHT22;28616;44.746;19.678;2023-01-15T03:39:32;0.90;99.90
42979;DHT22;28616;44.746;19.678;2023-01-15T03:55:44;1.00;99.90
42979;DHT22;28616;44.746;19.678;2023-01-15T03:58:17;1.00;99.90
42979;DHT22;28616;44.746;19.678;2023-01-15T04:00:49;1.00;99.90
42979;DHT22;28616;44.746;19.678;2023-01-15T04:03:18;1.00;99.90
42979;DHT22;28616;44.746;19.678;2023-01-15T04:05:44;1.00;99.90
42979;DHT22;28616;44.746;19.678;2023-01-15T04:08:11;1.00;99.90
42979;DHT22;28616;44.746;19.678;2023-01-15T04:10:48;1.00;99.90
42979;DHT22;28616;44.746;19.678;2023-01-15T04:13:14;1.00;99.90
42979;DHT22;28616;44.746;19.678;2023-01-15T04:15:40;1.00;99.90
42979;DHT22;28616;44.746;19.678;2023-01-15T04:18:05;1.00;99.90
42979;DHT22;28616;44.746;19.678;2023-01-15T04:20:31;1.00;99.90
42979;DHT22;28616;44.746;19.678;2023-01-15T04:22:57;1.00;99.90
42979;DHT22;28616;44.746;19.678;2023-01-15T04:25:22;1.00;99.90
42979;DHT22;28616;44.746;19.678;2023-01-15T04:27:48;0.90;99.90
42979;DHT22;28616;44.746;19.678;2023-01-15T04:30:15;0.90;99.90
42979;DHT22;28616;44.746;19.678;2023-01-15T04:32:42;0.90;99.90
42979;DHT22;28616;44.746;19.678;2023-01-15T04:35:08;0.90;99.90
42979;DHT22;28616;44.746;19.678;2023-01-15T04:37:33;0.80;99.90
42979;DHT22;28616;44.746;19.678;2023-01-15T04:39:59;0.90;99.90
42979;DHT22;28616;44.746;19.678;2023-01-15T04:42:25;0.90;99.90
42979;DHT22;28616;44.746;19.678;2023-01-15T04:45:09;0.90;99.90
42979;DHT22;28616;44.746;19.678;2023-01-15T04:47:35;0.80;99.90
42979;DHT22;28616;44.746;19.678;2023-01-15T04:50:00;0.90;99.90
42979;DHT22;28616;44.746;19.678;2023-01-15T04:52:26;0.90;99.90
42979;DHT22;28616;44.746;19.678;2023-01-15T04:54:54;0.90;99.90
42979;DHT22;28616;44.746;19.678;2023-01-15T04:57:19;1.00;99.90
42979;DHT22;28616;44.746;19.678;2023-01-15T04:59:45;1.00;99.90
42979;DHT22;28616;44.746;19.678;2023-01-15T05:02:11;1.00;99.90
42979;DHT22;28616;44.746;19.678;2023-01-15T05:04:37;1.00;99.90
42979;DHT22;28616;44.746;19.678;2023-01-15T05:07:03;1.00;99.90
42979;DHT22;28616;44.746;19.678;2023-01-15T05:09:30;1.00;99.90
42979;DHT22;28616;44.746;19.678;2023-01-15T05:11:55;1.00;99.90
42979;DHT22;28616;44.746;19.678;2023-01-15T05:14:21;1.00;99.90
42979;DHT22;28616;44.746;19.678;2023-01-15T05:16:47;1.00;99.90
42979;DHT22;28616;44.746;19.678;2023-01-15T05:19:13;1.00;99.90
42979;DHT22;28616;44.746;19.678;2023-01-15T05:21:42;1.00;99.90
42979;DHT22;28616;44.746;19.678;2023-01-15T05:24:12;1.00;99.90
42979;DHT22;28616;44.746;19.678;2023-01-15T05:26:39;1.00;99.90
42979;DHT22;28616;44.746;19.678;2023-01-15T05:29:05;1.00;99.90
42979;DHT22;28616;44.746;19.678;2023-01-15T05:31:31;1.00;99.90
42979;DHT22;28616;44.746;19.678;2023-01-15T05:33:58;1.00;99.90
42979;DHT22;28616;44.746;19.678;2023-01-15T05:36:27;1.00;99.90
42979;DHT22;28616;44.746;19.678;2023-01-15T05:38:54;1.00;99.90
42979;DHT22;28616;44.746;19.678;2023-01-15T05:41:22;1.00;99.90
42979;DHT22;28616;44.746;19.678;2023-01-15T05:44:09;1.00;99.90
42979;DHT22;28616;44.746;19.678;2023-01-15T05:46:36;1.00;99.90
42979;DHT22;28616;44.746;19.678;2023-01-15T05:49:05;0.90;99.90
42979;DHT22;28616;44.746;19.678;2023-01-15T05:51:32;0.90;99.90
42979;DHT22;28616;44.746;19.678;2023-01-15T05:53:58;0.90;99.90
42979;DHT22;28616;44.746;19.678;2023-01-15T05:56:24;0.90;99.90
42979;DHT22;28616;44.746;19.678;2023-01-15T05:58:51;1.00;99.90
42979;DHT22;28616;44.746;19.678;2023-01-15T06:01:16;0.90;99.90
42979;DHT22;28616;44.746;19.678;2023-01-15T06:03:42;0.90;99.90
42979;DHT22;28616;44.746;19.678;2023-01-15T06:06:16;0.90;99.90
42979;DHT22;28616;44.746;19.678;2023-01-15T06:08:43;0.90;99.90
42979;DHT22;28616;44.746;19.678;2023-01-15T06:11:09;0.90;99.90
42979;DHT22;28616;44.746;19.678;2023-01-15T06:13:36;0.90;99.90
42979;DHT22;28616;44.746;19.678;2023-01-15T06:16:04;0.80;99.90
42979;DHT22;28616;44.746;19.678;2023-01-15T06:18:29;0.80;99.90
42979;DHT22;28616;44.746;19.678;2023-01-15T06:20:55;0.80;99.90
42979;DHT22;28616;44.746;19.678;2023-01-15T06:23:22;0.80;99.90
42979;DHT22;28616;44.746;19.678;2023-01-15T06:25:48;0.70;99.90
42979;DHT22;28616;44.746;19.678;2023-01-15T06:28:13;0.70;99.90
42979;DHT22;28616;44.746;19.678;2023-01-15T06:30:39;0.70;99.90
42979;DHT22;28616;44.746;19.678;2023-01-15T06:33:06;0.60;99.90
42979;DHT22;28616;44.746;19.678;2023-01-15T06:35:32;0.60;99.90
42979;DHT22;28616;44.746;19.678;2023-01-15T06:37:58;0.60;99.90
42979;DHT22;28616;44.746;19.678;2023-01-15T06:40:24;0.50;99.90
42979;DHT22;28616;44.746;19.678;2023-01-15T06:42:51;0.60;99.90
42979;DHT22;28616;44.746;19.678;2023-01-15T06:45:39;0.70;99.90
42979;DHT22;28616;44.746;19.678;2023-01-15T06:48:24;0.60;99.90
42979;DHT22;28616;44.746;19.678;2023-01-15T06:50:51;0.60;99.90
42979;DHT22;28616;44.746;19.678;2023-01-15T06:53:18;0.70;99.90
42979;DHT22;28616;44.746;19.678;2023-01-15T06:55:43;0.70;99.90
42979;DHT22;28616;44.746;19.678;2023-01-15T06:58:09;0.70;99.90
42979;DHT22;28616;44.746;19.678;2023-01-15T07:00:35;0.70;99.90
42979;DHT22;28616;44.746;19.678;2023-01-15T07:03:02;0.80;99.90
42979;DHT22;28616;44.746;19.678;2023-01-15T07:05:28;0.90;99.90
42979;DHT22;28616;44.746;19.678;2023-01-15T07:07:54;1.00;99.90
42979;DHT22;28616;44.746;19.678;2023-01-15T07:10:19;1.00;99.90
42979;DHT22;28616;44.746;19.678;2023-01-15T07:12:45;1.00;99.90
42979;DHT22;28616;44.746;19.678;2023-01-15T07:15:11;1.10;99.90
42979;DHT22;28616;44.746;19.678;2023-01-15T07:17:37;1.10;99.90
42979;DHT22;28616;44.746;19.678;2023-01-15T07:20:03;1.20;99.90
42979;DHT22;28616;44.746;19.678;2023-01-15T07:22:29;1.20;99.90
42979;DHT22;28616;44.746;19.678;2023-01-15T07:24:55;1.20;99.90
42979;DHT22;28616;44.746;19.678;2023-01-15T07:27:21;1.20;99.90
42979;DHT22;28616;44.746;19.678;2023-01-15T07:29:47;1.30;99.90
42979;DHT22;28616;44.746;19.678;2023-01-15T07:32:15;1.40;99.90
42979;DHT22;28616;44.746;19.678;2023-01-15T07:34:40;1.40;99.90
42979;DHT22;28616;44.746;19.678;2023-01-15T07:37:06;1.40;99.90
42979;DHT22;28616;44.746;19.678;2023-01-15T07:39:32;1.50;99.90
42979;DHT22;28616;44.746;19.678;2023-01-15T07:41:58;1.70;99.90
42979;DHT22;28616;44.746;19.678;2023-01-15T07:44:42;1.80;99.90
42979;DHT22;28616;44.746;19.678;2023-01-15T07:47:26;1.90;99.90
42979;DHT22;28616;44.746;19.678;2023-01-15T07:50:13;2.00;99.90
42979;DHT22;28616;44.746;19.678;2023-01-15T07:52:39;2.00;99.90
42979;DHT22;28616;44.746;19.678;2023-01-15T07:55:05;2.00;99.90
42979;DHT22;28616;44.746;19.678;2023-01-15T07:57:33;2.00;99.90
42979;DHT22;28616;44.746;19.678;2023-01-15T07:59:59;2.00;99.90
42979;DHT22;28616;44.746;19.678;2023-01-15T08:02:25;2.00;99.90
42979;DHT22;28616;44.746;19.678;2023-01-15T08:04:51;2.10;99.90
42979;DHT22;28616;44.746;19.678;2023-01-15T08:07:17;2.10;99.90
42979;DHT22;28616;44.746;19.678;2023-01-15T08:09:43;2.30;99.90
42979;DHT22;28616;44.746;19.678;2023-01-15T08:12:10;2.50;99.90
42979;DHT22;28616;44.746;19.678;2023-01-15T08:14:54;2.70;99.90
42979;DHT22;28616;44.746;19.678;2023-01-15T08:17:40;3.00;99.90
42979;DHT22;28616;44.746;19.678;2023-01-15T08:20:13;3.10;99.90
42979;DHT22;28616;44.746;19.678;2023-01-15T08:22:39;3.20;99.90
42979;DHT22;28616;44.746;19.678;2023-01-15T08:25:07;3.30;99.90
42979;DHT22;28616;44.746;19.678;2023-01-15T08:27:33;3.50;99.90
42979;DHT22;28616;44.746;19.678;2023-01-15T08:29:59;3.60;99.90
42979;DHT22;28616;44.746;19.678;2023-01-15T08:32:25;3.70;99.90
42979;DHT22;28616;44.746;19.678;2023-01-15T08:34:50;3.90;99.90
42979;DHT22;28616;44.746;19.678;2023-01-15T08:37:16;4.10;99.90
42979;DHT22;28616;44.746;19.678;2023-01-15T08:39:42;4.30;99.90
42979;DHT22;28616;44.746;19.678;2023-01-15T08:42:07;4.30;99.90
42979;DHT22;28616;44.746;19.678;2023-01-15T08:44:33;4.40;99.90
42979;DHT22;28616;44.746;19.678;2023-01-15T08:46:59;4.40;99.90
42979;DHT22;28616;44.746;19.678;2023-01-15T08:49:25;4.50;99.90
42979;DHT22;28616;44.746;19.678;2023-01-15T08:51:50;4.70;99.90
42979;DHT22;28616;44.746;19.678;2023-01-15T08:54:21;4.70;99.90
42979;DHT22;28616;44.746;19.678;2023-01-15T08:56:47;4.70;99.90
42979;DHT22;28616;44.746;19.678;2023-01-15T08:59:14;4.80;99.90
42979;DHT22;28616;44.746;19.678;2023-01-15T09:01:40;4.90;99.90
42979;DHT22;28616;44.746;19.678;2023-01-15T09:04:06;5.10;99.90
42979;DHT22;28616;44.746;19.678;2023-01-15T09:06:32;5.30;99.90
42979;DHT22;28616;44.746;19.678;2023-01-15T09:08:59;5.40;99.90
42979;DHT22;28616;44.746;19.678;2023-01-15T09:11:25;5.60;99.90
42979;DHT22;28616;44.746;19.678;2023-01-15T09:13:50;5.70;99.90
42979;DHT22;28616;44.746;19.678;2023-01-15T09:16:16;5.90;99.90
42979;DHT22;28616;44.746;19.678;2023-01-15T09:18:42;6.00;99.90
42979;DHT22;28616;44.746;19.678;2023-01-15T09:21:09;6.10;99.90
42979;DHT22;28616;44.746;19.678;2023-01-15T09:23:34;6.10;99.90
42979;DHT22;28616;44.746;19.678;2023-01-15T09:26:02;6.30;99.90
42979;DHT22;28616;44.746;19.678;2023-01-15T09:28:31;6.40;99.90
42979;DHT22;28616;44.746;19.678;2023-01-15T09:30:57;6.60;99.90
42979;DHT22;28616;44.746;19.678;2023-01-15T09:33:24;6.70;99.90
42979;DHT22;28616;44.746;19.678;2023-01-15T09:35:52;7.00;99.90
42979;DHT22;28616;44.746;19.678;2023-01-15T09:38:20;7.30;99.90
42979;DHT22;28616;44.746;19.678;2023-01-15T09:40:58;7.40;99.90
42979;DHT22;28616;44.746;19.678;2023-01-15T09:43:49;7.50;99.90
42979;DHT22;28616;44.746;19.678;2023-01-15T09:46:20;7.60;99.90
42979;DHT22;28616;44.746;19.678;2023-01-15T09:49:14;7.90;99.90
42979;DHT22;28616;44.746;19.678;2023-01-15T09:52:03;8.00;99.90
42979;DHT22;28616;44.746;19.678;2023-01-15T09:57:10;8.60;99.90
42979;DHT22;28616;44.746;19.678;2023-01-15T09:59:39;8.90;99.90
42979;DHT22;28616;44.746;19.678;2023-01-15T10:05:08;9.80;99.90
42979;DHT22;28616;44.746;19.678;2023-01-15T10:10:13;10.40;99.90
42979;DHT22;28616;44.746;19.678;2023-01-15T10:12:42;10.80;99.90
42979;DHT22;28616;44.746;19.678;2023-01-15T10:15:23;11.40;99.90
42979;DHT22;28616;44.746;19.678;2023-01-15T10:17:51;11.20;99.90
42979;DHT22;28616;44.746;19.678;2023-01-15T10:26:16;11.70;99.10
42979;DHT22;28616;44.746;19.678;2023-01-15T10:31:21;12.00;98.80
42979;DHT22;28616;44.746;19.678;2023-01-15T10:34:07;12.50;98.10
42979;DHT22;28616;44.746;19.678;2023-01-15T10:36:46;13.60;95.20
42979;DHT22;28616;44.746;19.678;2023-01-15T10:39:33;14.00;92.50
42979;DHT22;28616;44.746;19.678;2023-01-15T10:42:18;14.20;91.40
42979;DHT22;28616;44.746;19.678;2023-01-15T10:47:35;14.70;86.80
42979;DHT22;28616;44.746;19.678;2023-01-15T10:50:19;14.80;84.80
42979;DHT22;28616;44.746;19.678;2023-01-15T10:53:33;15.00;84.30
42979;DHT22;28616;44.746;19.678;2023-01-15T10:55:56;14.60;80.70
42979;DHT22;28616;44.746;19.678;2023-01-15T10:58:40;14.70;81.20
42979;DHT22;28616;44.746;19.678;2023-01-15T11:01:15;14.60;81.70
42979;DHT22;28616;44.746;19.678;2023-01-15T11:03:42;15.10;79.80
42979;DHT22;28616;44.746;19.678;2023-01-15T11:06:20;15.00;78.50
42979;DHT22;28616;44.746;19.678;2023-01-15T11:08:56;15.30;79.80
42979;DHT22;28616;44.746;19.678;2023-01-15T11:11:34;15.20;77.40
42979;DHT22;28616;44.746;19.678;2023-01-15T11:14:19;15.50;78.00
42979;DHT22;28616;44.746;19.678;2023-01-15T11:17:11;15.40;75.20
42979;DHT22;28616;44.746;19.678;2023-01-15T11:19:56;15.20;76.60
42979;DHT22;28616;44.746;19.678;2023-01-15T11:22:22;14.90;76.60
42979;DHT22;28616;44.746;19.678;2023-01-15T11:24:54;15.10;76.40
42979;DHT22;28616;44.746;19.678;2023-01-15T11:27:27;15.10;75.40
42979;DHT22;28616;44.746;19.678;2023-01-15T11:29:57;15.50;74.70
42979;DHT22;28616;44.746;19.678;2023-01-15T11:32:37;15.60;74.40
42979;DHT22;28616;44.746;19.678;2023-01-15T11:37:40;15.60;72.60
42979;DHT22;28616;44.746;19.678;2023-01-15T11:40:17;15.60;71.50
42979;DHT22;28616;44.746;19.678;2023-01-15T11:42:48;14.80;71.00
42979;DHT22;28616;44.746;19.678;2023-01-15T11:45:33;14.90;73.50
42979;DHT22;28616;44.746;19.678;2023-01-15T11:48:22;14.60;71.50
42979;DHT22;28616;44.746;19.678;2023-01-15T11:51:11;14.40;71.90
42979;DHT22;28616;44.746;19.678;2023-01-15T11:53:50;14.40;75.00
42979;DHT22;28616;44.746;19.678;2023-01-15T11:56:21;14.10;74.60
42979;DHT22;28616;44.746;19.678;2023-01-15T11:59:01;14.00;75.40
42979;DHT22;28616;44.746;19.678;2023-01-15T12:01:34;13.90;75.80
42979;DHT22;28616;44.746;19.678;2023-01-15T12:04:03;14.10;75.60
42979;DHT22;28616;44.746;19.678;2023-01-15T12:06:30;14.00;76.60
42979;DHT22;28616;44.746;19.678;2023-01-15T12:09:30;14.00;77.60
42979;DHT22;28616;44.746;19.678;2023-01-15T12:20:02;13.70;79.00
42979;DHT22;28616;44.746;19.678;2023-01-15T12:22:43;13.50;78.30
42979;DHT22;28616;44.746;19.678;2023-01-15T12:25:23;12.80;79.10
42979;DHT22;28616;44.746;19.678;2023-01-15T12:31:04;12.20;82.50
42979;DHT22;28616;44.746;19.678;2023-01-15T12:33:44;12.00;84.90
42979;DHT22;28616;44.746;19.678;2023-01-15T12:38:56;11.60;88.40
42979;DHT22;28616;44.746;19.678;2023-01-15T12:44:18;11.20;88.50
42979;DHT22;28616;44.746;19.678;2023-01-15T12:47:09;11.20;90.70
42979;DHT22;28616;44.746;19.678;2023-01-15T12:49:43;11.00;90.20
42979;DHT22;28616;44.746;19.678;2023-01-15T12:52:20;11.00;90.60
42979;DHT22;28616;44.746;19.678;2023-01-15T12:55:25;11.00;92.00
42979;DHT22;28616;44.746;19.678;2023-01-15T12:57:47;10.90;92.10
42979;DHT22;28616;44.746;19.678;2023-01-15T13:00:35;10.90;92.80
42979;DHT22;28616;44.746;19.678;2023-01-15T13:05:55;10.90;93.60
42979;DHT22;28616;44.746;19.678;2023-01-15T13:10:56;10.90;94.50
42979;DHT22;28616;44.746;19.678;2023-01-15T13:13:28;10.90;94.20
42979;DHT22;28616;44.746;19.678;2023-01-15T13:16:09;10.90;94.90
42979;DHT22;28616;44.746;19.678;2023-01-15T13:21:32;10.90;95.90
42979;DHT22;28616;44.746;19.678;2023-01-15T13:34:49;10.90;96.60
42979;DHT22;28616;44.746;19.678;2023-01-15T13:37:26;10.90;97.40
42979;DHT22;28616;44.746;19.678;2023-01-15T13:40:21;10.80;97.80
42979;DHT22;28616;44.746;19.678;2023-01-15T13:42:47;10.70;98.30
42979;DHT22;28616;44.746;19.678;2023-01-15T13:45:47;10.60;98.80
42979;DHT22;28616;44.746;19.678;2023-01-15T13:48:35;10.70;98.50
42979;DHT22;28616;44.746;19.678;2023-01-15T13:51:06;10.60;99.90
42979;DHT22;28616;44.746;19.678;2023-01-15T13:53:36;10.60;99.80
42979;DHT22;28616;44.746;19.678;2023-01-15T13:56:07;10.50;99.90
42979;DHT22;28616;44.746;19.678;2023-01-15T13:58:57;10.40;99.90
42979;DHT22;28616;44.746;19.678;2023-01-15T14:09:12;10.50;99.90
42979;DHT22;28616;44.746;19.678;2023-01-15T14:33:54;10.10;99.90
42979;DHT22;28616;44.746;19.678;2023-01-15T14:36:26;10.00;99.90
42979;DHT22;28616;44.746;19.678;2023-01-15T14:38:56;9.90;99.90
42979;DHT22;28616;44.746;19.678;2023-01-15T14:41:30;9.90;99.90
42979;DHT22;28616;44.746;19.678;2023-01-15T14:43:59;9.80;99.90
42979;DHT22;28616;44.746;19.678;2023-01-15T14:46:33;9.80;99.90
42979;DHT22;28616;44.746;19.678;2023-01-15T14:49:00;9.60;99.90
42979;DHT22;28616;44.746;19.678;2023-01-15T14:51:49;9.60;99.90
42979;DHT22;28616;44.746;19.678;2023-01-15T14:54:17;9.50;99.90
42979;DHT22;28616;44.746;19.678;2023-01-15T14:56:55;9.40;99.90
42979;DHT22;28616;44.746;19.678;2023-01-15T14:59:32;9.30;99.90
42979;DHT22;28616;44.746;19.678;2023-01-15T15:02:04;9.20;99.90
42979;DHT22;28616;44.746;19.678;2023-01-15T15:04:49;9.20;99.90
42979;DHT22;28616;44.746;19.678;2023-01-15T15:07:20;9.10;99.90
42979;DHT22;28616;44.746;19.678;2023-01-15T15:12:56;8.90;99.90
42979;DHT22;28616;44.746;19.678;2023-01-15T15:20:45;8.50;99.90
42979;DHT22;28616;44.746;19.678;2023-01-15T15:26:16;8.20;99.90
42979;DHT22;28616;44.746;19.678;2023-01-15T15:28:53;8.10;99.90
42979;DHT22;28616;44.746;19.678;2023-01-15T15:31:20;8.00;99.90
42979;DHT22;28616;44.746;19.678;2023-01-15T15:33:52;7.90;99.90
42979;DHT22;28616;44.746;19.678;2023-01-15T15:36:19;7.80;99.90
42979;DHT22;28616;44.746;19.678;2023-01-15T15:39:00;7.70;99.90
42979;DHT22;28616;44.746;19.678;2023-01-15T15:41:35;7.60;99.90
42979;DHT22;28616;44.746;19.678;2023-01-15T15:44:58;7.50;99.90
42979;DHT22;28616;44.746;19.678;2023-01-15T15:47:42;7.40;99.90
42979;DHT22;28616;44.746;19.678;2023-01-15T15:50:32;7.30;99.90
42979;DHT22;28616;44.746;19.678;2023-01-15T15:52:59;7.20;99.90
42979;DHT22;28616;44.746;19.678;2023-01-15T15:55:41;7.20;99.90
42979;DHT22;28616;44.746;19.678;2023-01-15T15:58:14;7.10;99.90
42979;DHT22;28616;44.746;19.678;2023-01-15T16:00:43;7.10;99.90
42979;DHT22;28616;44.746;19.678;2023-01-15T16:03:21;7.00;99.90
42979;DHT22;28616;44.746;19.678;2023-01-15T16:05:59;7.00;99.90
42979;DHT22;28616;44.746;19.678;2023-01-15T16:08:26;7.00;99.90
42979;DHT22;28616;44.746;19.678;2023-01-15T16:10:53;7.00;99.90
42979;DHT22;28616;44.746;19.678;2023-01-15T16:13:35;7.00;99.90
42979;DHT22;28616;44.746;19.678;2023-01-15T16:16:04;7.00;99.90
42979;DHT22;28616;44.746;19.678;2023-01-15T16:18:53;6.90;99.90
42979;DHT22;28616;44.746;19.678;2023-01-15T16:21:32;6.90;99.90
42979;DHT22;28616;44.746;19.678;2023-01-15T16:24:04;6.80;99.90
42979;DHT22;28616;44.746;19.678;2023-01-15T16:26:39;6.80;99.90
42979;DHT22;28616;44.746;19.678;2023-01-15T16:29:18;6.70;99.90
42979;DHT22;28616;44.746;19.678;2023-01-15T16:31:45;6.60;99.90
42979;DHT22;28616;44.746;19.678;2023-01-15T16:34:17;6.60;99.90
42979;DHT22;28616;44.746;19.678;2023-01-15T16:36:44;6.60;99.90
42979;DHT22;28616;44.746;19.678;2023-01-15T16:42:02;6.50;99.90
42979;DHT22;28616;44.746;19.678;2023-01-15T16:44:34;6.50;99.90
42979;DHT22;28616;44.746;19.678;2023-01-15T16:47:01;6.40;99.90
42979;DHT22;28616;44.746;19.678;2023-01-15T16:49:32;6.40;99.90
42979;DHT22;28616;44.746;19.678;2023-01-15T16:52:00;6.40;99.90
42979;DHT22;28616;44.746;19.678;2023-01-15T16:57:24;6.30;99.90
42979;DHT22;28616;44.746;19.678;2023-01-15T16:59:56;6.20;99.90
42979;DHT22;28616;44.746;19.678;2023-01-15T17:02:23;6.20;99.90
42979;DHT22;28616;44.746;19.678;2023-01-15T17:04:49;6.10;99.90
42979;DHT22;28616;44.746;19.678;2023-01-15T17:07:35;6.10;99.90
42979;DHT22;28616;44.746;19.678;2023-01-15T17:10:03;6.00;99.90
42979;DHT22;28616;44.746;19.678;2023-01-15T17:12:30;5.90;99.90
42979;DHT22;28616;44.746;19.678;2023-01-15T17:17:47;5.80;99.90
42979;DHT22;28616;44.746;19.678;2023-01-15T17:20:14;5.70;99.90
42979;DHT22;28616;44.746;19.678;2023-01-15T17:22:42;5.70;99.90
42979;DHT22;28616;44.746;19.678;2023-01-15T17:25:38;5.60;99.90
42979;DHT22;28616;44.746;19.678;2023-01-15T17:28:04;5.60;99.90
42979;DHT22;28616;44.746;19.678;2023-01-15T17:30:31;5.50;99.90
42979;DHT22;28616;44.746;19.678;2023-01-15T17:33:02;5.50;99.90
42979;DHT22;28616;44.746;19.678;2023-01-15T17:35:33;5.50;99.90
42979;DHT22;28616;44.746;19.678;2023-01-15T17:37:59;5.40;99.90
42979;DHT22;28616;44.746;19.678;2023-01-15T17:40:25;5.40;99.90
42979;DHT22;28616;44.746;19.678;2023-01-15T17:42:51;5.40;99.90
42979;DHT22;28616;44.746;19.678;2023-01-15T17:45:21;5.30;99.90
42979;DHT22;28616;44.746;19.678;2023-01-15T17:47:47;5.30;99.90
42979;DHT22;28616;44.746;19.678;2023-01-15T17:50:14;5.30;99.90
42979;DHT22;28616;44.746;19.678;2023-01-15T17:52:40;5.20;99.90
42979;DHT22;28616;44.746;19.678;2023-01-15T17:55:12;5.20;99.90
42979;DHT22;28616;44.746;19.678;2023-01-15T17:57:57;5.20;99.90
42979;DHT22;28616;44.746;19.678;2023-01-15T18:00:41;5.20;99.90
42979;DHT22;28616;44.746;19.678;2023-01-15T18:03:26;5.20;99.90
42979;DHT22;28616;44.746;19.678;2023-01-15T18:06:12;5.20;99.90
42979;DHT22;28616;44.746;19.678;2023-01-15T18:08:45;5.20;99.90